Terminal Aerodrome Forecast
Issued by NWS Charleston, SC

Current Version | Previous Version | Text Only | Print | Product List | Glossary On
Versions: 1 2 3 4 5 6 7 8 9 10 11 12 13 14 15 16 17 18 19 20 21 22 23 24 25 26 27
000
FTUS42 KCHS 202300
TAFCHS
TAF
KCHS 202320Z 2100/2124 01013G18KT P6SM BKN035
     FM210500 01012G17KT P6SM BKN030
     FM211500 36012KT P6SM BKN035
     FM211900 35010KT P6SM SCT040=

USA.gov is the U.S. government's official web portal to all federal, state and local government web resources and services.